Time;durP1;ratioP1;P1;durP2;ratioP2;P2;SDS_P1;SDS_P2;PMS_P1;PMS_P2;Temp;Humidity;BMP_temperature;BMP_pressure;BME280_temperature;BME280_humidity;BME280_pressure;Samples;Min_cycle;Max_cycle;Signal;HPM_P1;HPM_P2
2024/01/02 00:01:30;;;;;;;1.20;0.93;;;;;;;;;;5017656;28;20495;-85
2024/01/02 00:03:58;;;;;;;2.35;0.80;;;;;;;;;;5016636;28;20395;-85
2024/01/02 00:06:27;;;;;;;2.28;1.00;;;;;;;;;;5015508;28;20053;-85
2024/01/02 00:08:55;;;;;;;0.82;0.75;;;;;;;;;;5023193;28;20053;-85
2024/01/02 00:11:24;;;;;;;0.95;0.80;;;;;;;;;;5016663;28;20049;-86
2024/01/02 00:13:52;;;;;;;1.10;0.95;;;;;;;;;;5018821;28;20050;-85
2024/01/02 00:16:22;;;;;;;1.25;0.90;;;;;;;;;;5014928;28;20042;-85
2024/01/02 00:18:50;;;;;;;5.55;1.48;;;;;;;;;;5015706;28;20107;-85
2024/01/02 00:21:19;;;;;;;2.05;1.20;;;;;;;;;;5018817;28;20055;-85
2024/01/02 00:23:47;;;;;;;2.28;1.02;;;;;;;;;;5015723;28;20143;-85
2024/01/02 00:26:16;;;;;;;0.82;0.80;;;;;;;;;;5016948;28;20053;-85
2024/01/02 00:28:45;;;;;;;1.95;1.05;;;;;;;;;;5018686;28;20053;-85
2024/01/02 00:31:13;;;;;;;1.17;1.05;;;;;;;;;;5018828;28;20049;-85
2024/01/02 00:33:43;;;;;;;2.08;0.88;;;;;;;;;;5021860;28;20112;-85
2024/01/02 00:36:11;;;;;;;1.48;0.90;;;;;;;;;;5021198;28;20049;-85
2024/01/02 00:38:40;;;;;;;1.85;0.80;;;;;;;;;;5020320;28;20042;-86
2024/01/02 00:41:08;;;;;;;1.33;0.93;;;;;;;;;;5017902;28;20564;-85
2024/01/02 00:43:37;;;;;;;5.32;1.45;;;;;;;;;;5017958;28;20045;-86
2024/01/02 00:46:05;;;;;;;1.73;0.90;;;;;;;;;;5014338;28;20135;-85
2024/01/02 00:48:33;;;;;;;2.05;0.95;;;;;;;;;;5015177;28;20050;-86
2024/01/02 00:51:03;;;;;;;1.77;0.98;;;;;;;;;;5022501;28;20478;-86
2024/01/02 00:53:32;;;;;;;1.52;1.05;;;;;;;;;;5023687;28;20074;-85
2024/01/02 00:56:00;;;;;;;1.25;1.02;;;;;;;;;;5019291;28;20394;-85
2024/01/02 00:58:29;;;;;;;1.42;0.93;;;;;;;;;;5025598;28;20046;-85
2024/01/02 01:00:57;;;;;;;2.25;0.80;;;;;;;;;;5024097;28;20100;-86
2024/01/02 01:03:26;;;;;;;0.90;0.90;;;;;;;;;;5024520;28;20495;-85
2024/01/02 01:05:54;;;;;;;0.90;0.90;;;;;;;;;;5025104;28;20100;-85
2024/01/02 01:08:24;;;;;;;1.30;0.90;;;;;;;;;;5024205;28;20111;-85
2024/01/02 01:10:52;;;;;;;0.68;0.68;;;;;;;;;;5021918;28;20096;-85
2024/01/02 01:13:21;;;;;;;1.75;0.80;;;;;;;;;;5021479;28;20064;-85
2024/01/02 01:15:49;;;;;;;1.35;0.85;;;;;;;;;;5018266;28;20111;-85
2024/01/02 01:18:17;;;;;;;1.85;0.90;;;;;;;;;;5022387;28;20049;-85
2024/01/02 01:20:46;;;;;;;1.02;0.80;;;;;;;;;;5022678;28;20103;-86
2024/01/02 01:23:15;;;;;;;0.98;0.88;;;;;;;;;;5024932;28;20137;-86
2024/01/02 01:25:45;;;;;;;2.25;0.82;;;;;;;;;;5024759;28;20403;-85
2024/01/02 01:28:13;;;;;;;1.90;0.75;;;;;;;;;;5017156;28;20053;-86
2024/01/02 01:30:41;;;;;;;0.80;0.80;;;;;;;;;;5018322;28;20061;-85
2024/01/02 01:33:10;;;;;;;0.93;0.90;;;;;;;;;;5017265;28;20549;-85
2024/01/02 01:35:39;;;;;;;2.45;0.90;;;;;;;;;;5024295;28;20056;-85
2024/01/02 01:38:06;;;;;;;2.47;0.90;;;;;;;;;;5023113;28;20053;-85
2024/01/02 01:40:35;;;;;;;1.10;0.98;;;;;;;;;;5021364;28;20108;-86
2024/01/02 01:43:11;;;;;;;1.48;0.80;;;;;;;;;;5024272;28;20108;-85
2024/01/02 01:45:40;;;;;;;0.80;0.80;;;;;;;;;;5022283;28;20103;-86
2024/01/02 01:48:09;;;;;;;0.80;0.80;;;;;;;;;;5021542;28;20512;-86
2024/01/02 01:50:38;;;;;;;2.42;0.90;;;;;;;;;;5020496;28;20056;-85
2024/01/02 01:53:08;;;;;;;1.30;0.73;;;;;;;;;;5016458;28;20046;-86
2024/01/02 01:55:37;;;;;;;1.52;0.73;;;;;;;;;;5018580;28;20480;-85
2024/01/02 01:58:07;;;;;;;1.23;0.88;;;;;;;;;;5023521;28;20201;-85
2024/01/02 02:00:36;;;;;;;2.95;0.90;;;;;;;;;;5021888;28;20050;-86
2024/01/02 02:03:04;;;;;;;1.13;0.70;;;;;;;;;;5025401;28;20115;-86
2024/01/02 02:05:34;;;;;;;0.80;0.80;;;;;;;;;;5017409;28;20049;-85
2024/01/02 02:08:02;;;;;;;1.05;0.75;;;;;;;;;;5019612;28;20161;-86
2024/01/02 02:10:32;;;;;;;0.90;0.90;;;;;;;;;;5019118;28;20037;-86
2024/01/02 02:13:01;;;;;;;0.80;0.80;;;;;;;;;;5024104;28;20058;-85
2024/01/02 02:15:31;;;;;;;1.08;0.88;;;;;;;;;;5023726;28;20053;-85
2024/01/02 02:17:59;;;;;;;1.30;0.85;;;;;;;;;;5022872;28;20498;-86
2024/01/02 02:20:28;;;;;;;1.02;0.75;;;;;;;;;;5022763;28;20046;-85
2024/01/02 02:22:58;;;;;;;1.00;0.90;;;;;;;;;;5017406;28;20052;-85
2024/01/02 02:25:27;;;;;;;0.70;0.70;;;;;;;;;;5023989;28;20045;-85
2024/01/02 02:27:55;;;;;;;1.50;0.70;;;;;;;;;;5022038;28;20135;-85
2024/01/02 02:30:23;;;;;;;0.82;0.70;;;;;;;;;;5017780;28;20049;-86
2024/01/02 02:32:52;;;;;;;2.90;0.90;;;;;;;;;;5016825;28;20056;-86
2024/01/02 02:35:20;;;;;;;0.88;0.70;;;;;;;;;;5016970;28;20050;-85
2024/01/02 02:37:49;;;;;;;0.85;0.75;;;;;;;;;;5017375;28;20053;-85
2024/01/02 02:40:19;;;;;;;0.60;0.60;;;;;;;;;;5019677;28;20045;-85
2024/01/02 02:42:47;;;;;;;2.70;0.80;;;;;;;;;;5019367;28;20123;-85
2024/01/02 02:45:15;;;;;;;1.52;0.80;;;;;;;;;;5019095;28;20050;-85
2024/01/02 02:47:44;;;;;;;0.82;0.70;;;;;;;;;;5015627;28;20053;-85
2024/01/02 02:50:12;;;;;;;0.82;0.73;;;;;;;;;;5022303;28;20092;-85
2024/01/02 02:52:41;;;;;;;1.67;1.00;;;;;;;;;;5020145;28;20049;-86
2024/01/02 02:55:13;;;;;;;0.70;0.70;;;;;;;;;;5022330;28;20069;-85
2024/01/02 02:57:43;;;;;;;0.70;0.70;;;;;;;;;;5022697;28;20420;-86
2024/01/02 03:00:12;;;;;;;0.82;0.73;;;;;;;;;;5020243;28;20506;-85
2024/01/02 03:02:41;;;;;;;0.77;0.77;;;;;;;;;;5023495;28;20522;-85
2024/01/02 03:05:10;;;;;;;2.88;0.60;;;;;;;;;;5023224;28;20108;-85
2024/01/02 03:07:41;;;;;;;0.85;0.70;;;;;;;;;;5020860;28;20573;-86
2024/01/02 03:10:10;;;;;;;1.17;0.70;;;;;;;;;;5022996;28;20477;-86
2024/01/02 03:12:38;;;;;;;0.60;0.60;;;;;;;;;;5015867;28;20046;-85
2024/01/02 03:15:09;;;;;;;1.27;0.80;;;;;;;;;;5022052;28;20054;-85
2024/01/02 03:17:37;;;;;;;0.73;0.73;;;;;;;;;;5017217;28;20112;-86
2024/01/02 03:20:07;;;;;;;0.80;0.73;;;;;;;;;;5016298;28;20110;-86
2024/01/02 03:22:35;;;;;;;1.02;0.80;;;;;;;;;;5021991;28;20132;-86
2024/01/02 03:25:05;;;;;;;0.88;0.82;;;;;;;;;;5022268;28;20053;-86
2024/01/02 03:27:33;;;;;;;0.60;0.60;;;;;;;;;;5021966;28;20060;-85
2024/01/02 03:30:03;;;;;;;0.70;0.70;;;;;;;;;;5016181;28;20072;-85
2024/01/02 03:32:33;;;;;;;2.17;0.88;;;;;;;;;;5022239;28;20045;-85
2024/01/02 03:35:02;;;;;;;1.67;0.80;;;;;;;;;;5016323;28;20514;-85
2024/01/02 03:37:31;;;;;;;0.77;0.75;;;;;;;;;;5020481;28;20060;-86
2024/01/02 03:39:59;;;;;;;0.98;0.63;;;;;;;;;;5023135;28;20046;-85
2024/01/02 03:42:27;;;;;;;0.70;0.70;;;;;;;;;;5016236;28;20089;-85
2024/01/02 03:44:56;;;;;;;0.70;0.70;;;;;;;;;;5018034;28;20115;-85
2024/01/02 03:47:24;;;;;;;1.42;0.70;;;;;;;;;;5019619;28;20072;-85
2024/01/02 03:49:54;;;;;;;0.80;0.80;;;;;;;;;;5022521;28;20050;-85
2024/01/02 03:52:23;;;;;;;3.28;0.80;;;;;;;;;;5022833;28;20049;-85
2024/01/02 03:54:51;;;;;;;0.77;0.60;;;;;;;;;;5018913;28;20053;-86
2024/01/02 03:57:20;;;;;;;0.73;0.63;;;;;;;;;;5022014;28;20057;-85
2024/01/02 03:59:48;;;;;;;1.30;0.80;;;;;;;;;;5021822;28;20088;-85
2024/01/02 04:02:16;;;;;;;0.63;0.63;;;;;;;;;;5020416;28;20046;-85
2024/01/02 04:04:45;;;;;;;0.82;0.80;;;;;;;;;;5016008;28;20051;-85
2024/01/02 04:07:14;;;;;;;0.60;0.60;;;;;;;;;;5020416;28;20053;-85
2024/01/02 04:09:43;;;;;;;0.60;0.60;;;;;;;;;;5015468;28;20057;-85
2024/01/02 04:12:11;;;;;;;2.58;0.77;;;;;;;;;;5021311;28;20057;-86
2024/01/02 04:14:40;;;;;;;1.42;0.55;;;;;;;;;;5021737;28;20053;-85
2024/01/02 04:17:08;;;;;;;0.68;0.68;;;;;;;;;;5021424;28;20132;-85
2024/01/02 04:19:36;;;;;;;1.02;0.80;;;;;;;;;;5019542;28;20125;-85
2024/01/02 04:22:05;;;;;;;0.60;0.60;;;;;;;;;;5021679;28;20269;-85
2024/01/02 04:24:35;;;;;;;0.60;0.60;;;;;;;;;;5022933;28;20049;-87
2024/01/02 04:27:04;;;;;;;2.38;0.73;;;;;;;;;;5018514;28;20088;-86
2024/01/02 04:29:32;;;;;;;1.38;0.70;;;;;;;;;;5021437;28;20490;-85
2024/01/02 04:32:00;;;;;;;0.60;0.50;;;;;;;;;;5020095;28;20093;-85
2024/01/02 04:34:29;;;;;;;0.82;0.63;;;;;;;;;;5018628;28;20396;-85
2024/01/02 04:36:59;;;;;;;2.28;0.65;;;;;;;;;;5019688;28;20058;-85
2024/01/02 04:39:27;;;;;;;0.90;0.70;;;;;;;;;;5018318;28;20042;-85
2024/01/02 04:41:57;;;;;;;2.60;0.65;;;;;;;;;;5021929;28;20077;-86
2024/01/02 04:44:25;;;;;;;1.27;0.70;;;;;;;;;;5022430;28;20057;-85
2024/01/02 04:46:54;;;;;;;0.60;0.60;;;;;;;;;;5025167;28;20581;-86
2024/01/02 04:49:23;;;;;;;0.60;0.60;;;;;;;;;;5025016;28;20160;-85
2024/01/02 04:51:51;;;;;;;0.95;0.70;;;;;;;;;;5022595;28;20050;-85
2024/01/02 04:54:20;;;;;;;0.77;0.77;;;;;;;;;;5023502;28;20787;-85
2024/01/02 04:56:48;;;;;;;0.52;0.52;;;;;;;;;;5024671;28;20561;-85
2024/01/02 04:59:18;;;;;;;0.73;0.73;;;;;;;;;;5022178;28;20096;-86
2024/01/02 05:01:46;;;;;;;1.15;0.70;;;;;;;;;;5022881;28;20128;-86
2024/01/02 05:04:14;;;;;;;0.93;0.73;;;;;;;;;;5024398;28;20197;-86
2024/01/02 05:06:43;;;;;;;0.82;0.70;;;;;;;;;;5021606;28;20056;-85
2024/01/02 05:09:11;;;;;;;0.95;0.80;;;;;;;;;;5024918;28;20111;-85
2024/01/02 05:11:40;;;;;;;0.70;0.70;;;;;;;;;;5021998;28;20480;-86
2024/01/02 05:14:08;;;;;;;1.00;0.70;;;;;;;;;;5024552;28;20054;-86
2024/01/02 05:16:38;;;;;;;0.98;0.70;;;;;;;;;;5021316;28;20038;-86
2024/01/02 05:19:06;;;;;;;0.82;0.57;;;;;;;;;;5018220;28;20070;-85
2024/01/02 05:21:35;;;;;;;1.85;0.80;;;;;;;;;;5019419;28;20085;-85
2024/01/02 05:24:04;;;;;;;1.13;0.60;;;;;;;;;;5017604;28;20379;-86
2024/01/02 05:26:32;;;;;;;0.63;0.60;;;;;;;;;;5019093;28;20529;-86
2024/01/02 05:29:01;;;;;;;2.03;0.80;;;;;;;;;;5019882;28;20137;-85
2024/01/02 05:31:29;;;;;;;2.25;0.75;;;;;;;;;;5023650;28;20258;-85
2024/01/02 05:33:59;;;;;;;1.42;0.63;;;;;;;;;;5025844;28;20104;-85
2024/01/02 05:36:27;;;;;;;1.00;0.80;;;;;;;;;;5024073;28;20052;-85
2024/01/02 05:38:56;;;;;;;0.85;0.73;;;;;;;;;;5017759;28;20103;-86
2024/01/02 05:41:24;;;;;;;0.60;0.60;;;;;;;;;;5019132;28;20107;-85
2024/01/02 05:43:52;;;;;;;0.85;0.70;;;;;;;;;;5019758;28;20065;-85
2024/01/02 05:46:21;;;;;;;0.80;0.68;;;;;;;;;;5017867;28;20053;-85
2024/01/02 05:48:49;;;;;;;0.70;0.70;;;;;;;;;;5018840;28;20054;-85
2024/01/02 05:51:20;;;;;;;1.48;0.70;;;;;;;;;;5021421;28;20108;-86
2024/01/02 05:53:49;;;;;;;1.33;0.63;;;;;;;;;;5017836;28;20046;-85
2024/01/02 05:56:17;;;;;;;2.45;0.60;;;;;;;;;;5023307;28;20053;-85
2024/01/02 05:58:46;;;;;;;0.60;0.60;;;;;;;;;;5023964;28;20414;-85
2024/01/02 06:01:14;;;;;;;1.23;0.70;;;;;;;;;;5024709;28;20100;-86
2024/01/02 06:03:43;;;;;;;1.05;0.70;;;;;;;;;;5023370;28;20466;-85
2024/01/02 06:06:11;;;;;;;0.75;0.60;;;;;;;;;;5021507;28;20540;-85
2024/01/02 06:08:45;;;;;;;0.73;0.60;;;;;;;;;;5019096;28;20251;-85
2024/01/02 06:11:13;;;;;;;0.50;0.50;;;;;;;;;;5019477;28;20057;-85
2024/01/02 06:13:42;;;;;;;0.60;0.60;;;;;;;;;;5017974;28;20491;-85
2024/01/02 06:16:10;;;;;;;1.17;0.70;;;;;;;;;;5018381;28;20111;-85
2024/01/02 06:18:39;;;;;;;0.50;0.50;;;;;;;;;;5024920;28;20132;-85
2024/01/02 06:21:08;;;;;;;1.67;0.57;;;;;;;;;;5020992;28;20069;-86
2024/01/02 06:23:36;;;;;;;0.73;0.73;;;;;;;;;;5024117;28;20510;-85
2024/01/02 06:26:19;;;;;;;0.60;0.60;;;;;;;;;;5016686;28;20074;-85
2024/01/02 06:28:47;;;;;;;0.60;0.60;;;;;;;;;;5016679;28;20478;-85
2024/01/02 06:31:16;;;;;;;0.57;0.57;;;;;;;;;;5016315;28;20057;-86
2024/01/02 06:33:45;;;;;;;0.50;0.50;;;;;;;;;;5017017;28;20077;-85
2024/01/02 06:36:14;;;;;;;0.50;0.47;;;;;;;;;;5022547;28;20302;-85
2024/01/02 06:38:43;;;;;;;0.40;0.40;;;;;;;;;;5015338;28;20129;-85
2024/01/02 06:41:11;;;;;;;0.40;0.40;;;;;;;;;;5018762;28;20041;-85
2024/01/02 06:43:41;;;;;;;0.40;0.40;;;;;;;;;;5015820;28;20042;-86
2024/01/02 06:46:12;;;;;;;0.85;0.60;;;;;;;;;;5022766;28;20050;-86
2024/01/02 06:48:42;;;;;;;0.80;0.50;;;;;;;;;;5023708;28;20045;-86
2024/01/02 06:51:10;;;;;;;0.50;0.50;;;;;;;;;;5019049;28;20091;-87
2024/01/02 06:53:38;;;;;;;0.47;0.47;;;;;;;;;;5022845;28;20157;-86
2024/01/02 06:56:08;;;;;;;0.50;0.50;;;;;;;;;;5022701;28;20042;-86
2024/01/02 06:58:37;;;;;;;0.40;0.40;;;;;;;;;;5017990;28;20053;-85
2024/01/02 07:01:07;;;;;;;0.65;0.50;;;;;;;;;;5019619;28;20057;-85
2024/01/02 07:03:36;;;;;;;0.40;0.40;;;;;;;;;;5016205;28;20430;-86
2024/01/02 07:06:06;;;;;;;0.75;0.50;;;;;;;;;;5015678;28;20041;-86
2024/01/02 07:08:35;;;;;;;0.40;0.40;;;;;;;;;;5018450;28;20546;-86
2024/01/02 07:11:03;;;;;;;0.50;0.50;;;;;;;;;;5019939;28;20049;-85
2024/01/02 07:13:32;;;;;;;0.52;0.52;;;;;;;;;;5022824;28;20080;-85
2024/01/02 07:16:00;;;;;;;0.50;0.50;;;;;;;;;;5021759;28;20049;-86
2024/01/02 07:18:30;;;;;;;0.95;0.68;;;;;;;;;;5022117;28;20069;-86
2024/01/02 07:20:59;;;;;;;0.45;0.45;;;;;;;;;;5021197;28;20053;-85
2024/01/02 07:23:27;;;;;;;1.15;0.50;;;;;;;;;;5022631;28;20053;-85
2024/01/02 07:25:56;;;;;;;0.50;0.50;;;;;;;;;;5018391;28;20058;-86
2024/01/02 07:28:25;;;;;;;0.43;0.40;;;;;;;;;;5015686;28;20053;-86
2024/01/02 07:30:53;;;;;;;0.93;0.60;;;;;;;;;;5015998;28;20045;-85
2024/01/02 07:33:22;;;;;;;0.70;0.60;;;;;;;;;;5015638;28;20042;-85
2024/01/02 07:35:52;;;;;;;0.63;0.50;;;;;;;;;;5015171;28;20072;-85
2024/01/02 07:38:21;;;;;;;0.60;0.60;;;;;;;;;;5015370;28;20129;-86
2024/01/02 07:40:50;;;;;;;0.60;0.60;;;;;;;;;;5016345;28;20486;-86
2024/01/02 07:43:19;;;;;;;0.73;0.50;;;;;;;;;;5022583;28;20045;-86
2024/01/02 07:45:47;;;;;;;0.77;0.60;;;;;;;;;;5015967;28;20056;-85
2024/01/02 07:48:15;;;;;;;1.23;0.60;;;;;;;;;;5016473;28;20127;-85
2024/01/02 07:50:44;;;;;;;0.65;0.60;;;;;;;;;;5021245;28;20103;-86
2024/01/02 07:53:19;;;;;;;0.93;0.60;;;;;;;;;;5022298;28;20046;-85
2024/01/02 07:55:48;;;;;;;0.68;0.65;;;;;;;;;;5016134;28;20137;-85
2024/01/02 07:58:16;;;;;;;0.90;0.60;;;;;;;;;;5015994;28;20053;-86
2024/01/02 08:00:45;;;;;;;0.60;0.60;;;;;;;;;;5022304;28;20050;-85
2024/01/02 08:03:14;;;;;;;0.90;0.75;;;;;;;;;;5026367;28;20090;-85
2024/01/02 08:05:43;;;;;;;0.57;0.57;;;;;;;;;;5021210;28;20530;-85
2024/01/02 08:08:11;;;;;;;3.22;0.80;;;;;;;;;;5019190;28;20049;-85
2024/01/02 08:10:41;;;;;;;0.88;0.70;;;;;;;;;;5024967;28;20049;-85
2024/01/02 08:13:09;;;;;;;0.70;0.70;;;;;;;;;;5022439;28;20061;-85
2024/01/02 08:15:38;;;;;;;0.60;0.60;;;;;;;;;;5019630;28;20049;-85
2024/01/02 08:18:09;;;;;;;0.60;0.60;;;;;;;;;;5020112;28;20458;-85
2024/01/02 08:20:39;;;;;;;0.88;0.60;;;;;;;;;;5023766;28;20053;-85
2024/01/02 08:23:08;;;;;;;0.70;0.60;;;;;;;;;;5020948;28;20049;-85
2024/01/02 08:25:36;;;;;;;0.68;0.50;;;;;;;;;;5019614;28;20057;-85
2024/01/02 08:28:07;;;;;;;0.93;0.88;;;;;;;;;;5025252;28;20149;-86
2024/01/02 08:30:36;;;;;;;0.60;0.60;;;;;;;;;;5024597;28;20065;-86
2024/01/02 08:33:04;;;;;;;1.00;0.70;;;;;;;;;;5025164;28;20054;-85
2024/01/02 08:35:34;;;;;;;1.23;1.00;;;;;;;;;;5020335;28;20042;-85
2024/01/02 08:38:03;;;;;;;0.60;0.60;;;;;;;;;;5021944;28;20100;-85
2024/01/02 08:40:32;;;;;;;1.30;0.80;;;;;;;;;;5020442;28;20050;-86
2024/01/02 08:43:01;;;;;;;0.70;0.70;;;;;;;;;;5025244;28;20056;-85
2024/01/02 08:45:30;;;;;;;1.05;0.80;;;;;;;;;;5021643;28;20518;-85
2024/01/02 08:47:59;;;;;;;0.63;0.63;;;;;;;;;;5017197;28;20098;-85
2024/01/02 08:50:29;;;;;;;0.93;0.60;;;;;;;;;;5025556;28;20478;-85
2024/01/02 08:52:58;;;;;;;0.93;0.70;;;;;;;;;;5026125;28;20111;-85
2024/01/02 08:55:27;;;;;;;0.60;0.60;;;;;;;;;;5020041;28;20076;-85
2024/01/02 08:57:55;;;;;;;0.60;0.60;;;;;;;;;;5019278;28;20562;-85
2024/01/02 09:00:23;;;;;;;0.60;0.60;;;;;;;;;;5018192;28;20122;-85
2024/01/02 09:02:53;;;;;;;0.73;0.60;;;;;;;;;;5025195;28;20100;-86
2024/01/02 09:05:22;;;;;;;0.50;0.50;;;;;;;;;;5025447;28;20514;-86
2024/01/02 09:07:50;;;;;;;0.73;0.70;;;;;;;;;;5023746;28;20545;-86
2024/01/02 09:10:18;;;;;;;0.88;0.60;;;;;;;;;;5017643;28;20073;-86
2024/01/02 09:12:47;;;;;;;0.60;0.60;;;;;;;;;;5024498;28;20536;-85
2024/01/02 09:15:15;;;;;;;0.50;0.50;;;;;;;;;;5018896;28;20052;-85
2024/01/02 09:17:44;;;;;;;0.88;0.60;;;;;;;;;;5024098;28;20416;-85
2024/01/02 09:20:14;;;;;;;0.50;0.50;;;;;;;;;;5024380;28;20401;-85
2024/01/02 09:22:42;;;;;;;1.77;0.60;;;;;;;;;;5018634;28;20073;-85
2024/01/02 09:25:12;;;;;;;0.60;0.60;;;;;;;;;;5021295;28;20100;-85
2024/01/02 09:27:41;;;;;;;0.50;0.50;;;;;;;;;;5024225;28;20372;-86
2024/01/02 09:30:12;;;;;;;0.50;0.50;;;;;;;;;;5025775;28;20054;-85
2024/01/02 09:32:42;;;;;;;0.85;0.70;;;;;;;;;;5018098;28;20049;-85
2024/01/02 09:35:11;;;;;;;0.60;0.60;;;;;;;;;;5017693;28;20057;-85
2024/01/02 09:37:41;;;;;;;0.70;0.68;;;;;;;;;;5023714;28;20047;-85
2024/01/02 09:40:14;;;;;;;1.30;0.70;;;;;;;;;;5018085;28;20042;-86
2024/01/02 09:42:48;;;;;;;1.95;0.95;;;;;;;;;;5021191;28;20108;-85
2024/01/02 09:45:19;;;;;;;0.50;0.50;;;;;;;;;;5019995;28;20062;-86
2024/01/02 09:47:57;;;;;;;1.02;0.60;;;;;;;;;;5022306;28;20434;-85
2024/01/02 09:50:29;;;;;;;0.60;0.55;;;;;;;;;;5017833;28;20133;-86
2024/01/02 09:53:16;;;;;;;0.80;0.63;;;;;;;;;;5024757;28;20054;-86
2024/01/02 09:55:50;;;;;;;0.50;0.50;;;;;;;;;;5017298;28;20061;-85
2024/01/02 09:58:22;;;;;;;0.73;0.70;;;;;;;;;;5021505;28;20510;-86
2024/01/02 10:00:54;;;;;;;0.60;0.60;;;;;;;;;;5018197;28;20046;-85
2024/01/02 10:03:37;;;;;;;1.45;0.70;;;;;;;;;;5017914;28;20061;-85
2024/01/02 10:06:11;;;;;;;1.48;0.60;;;;;;;;;;5019060;28;20042;-86
2024/01/02 10:08:47;;;;;;;0.70;0.70;;;;;;;;;;5020833;28;20071;-85
2024/01/02 10:11:20;;;;;;;1.55;0.60;;;;;;;;;;5020385;28;20045;-86
2024/01/02 10:13:52;;;;;;;0.60;0.60;;;;;;;;;;5023955;28;20608;-85
2024/01/02 10:16:24;;;;;;;0.40;0.40;;;;;;;;;;5022126;28;20100;-85
2024/01/02 10:19:00;;;;;;;0.40;0.40;;;;;;;;;;5021996;28;20465;-86
2024/01/02 10:21:30;;;;;;;0.50;0.50;;;;;;;;;;5019142;28;20104;-85
2024/01/02 10:24:05;;;;;;;0.75;0.63;;;;;;;;;;5024028;28;20042;-85
2024/01/02 10:26:34;;;;;;;0.40;0.40;;;;;;;;;;5019547;28;20057;-86
2024/01/02 10:29:05;;;;;;;0.40;0.40;;;;;;;;;;5017651;28;20042;-86
2024/01/02 10:31:37;;;;;;;0.55;0.40;;;;;;;;;;5021515;28;20125;-86
2024/01/02 10:34:11;;;;;;;0.40;0.40;;;;;;;;;;5023417;28;20057;-86
2024/01/02 10:36:43;;;;;;;0.55;0.55;;;;;;;;;;5015928;28;20128;-85
2024/01/02 10:39:20;;;;;;;0.50;0.50;;;;;;;;;;5022725;28;20065;-86
2024/01/02 10:41:48;;;;;;;;;;;;;;;;;;5019192;28;20491;-85
2024/01/02 10:44:21;;;;;;;0.40;0.40;;;;;;;;;;5022659;28;19921;-85
2024/01/02 10:46:52;;;;;;;0.40;0.40;;;;;;;;;;5016387;28;20409;-85
2024/01/02 10:49:27;;;;;;;0.57;0.40;;;;;;;;;;5023393;28;20532;-85
2024/01/02 10:51:59;;;;;;;0.30;0.30;;;;;;;;;;5019402;28;20064;-86
2024/01/02 10:54:34;;;;;;;0.43;0.40;;;;;;;;;;5018369;28;20099;-85
2024/01/02 10:57:04;;;;;;;0.40;0.40;;;;;;;;;;5021593;28;20050;-86
2024/01/02 10:59:42;;;;;;;0.50;0.50;;;;;;;;;;5017028;28;20045;-86
2024/01/02 11:02:18;;;;;;;0.32;0.32;;;;;;;;;;5018879;28;20125;-86
2024/01/02 11:04:52;;;;;;;0.30;0.30;;;;;;;;;;5016314;28;20054;-86
2024/01/02 11:07:23;;;;;;;0.40;0.40;;;;;;;;;;5020136;28;20061;-85
2024/01/02 11:09:56;;;;;;;0.40;0.40;;;;;;;;;;5016612;28;20049;-86
2024/01/02 11:12:28;;;;;;;0.30;0.30;;;;;;;;;;5018367;28;20131;-85
2024/01/02 11:14:57;;;;;;;0.40;0.40;;;;;;;;;;5017351;28;20507;-85
2024/01/02 11:17:26;;;;;;;0.43;0.40;;;;;;;;;;5021565;28;20608;-86
2024/01/02 11:19:58;;;;;;;0.98;0.38;;;;;;;;;;5015954;28;20046;-85
2024/01/02 11:22:30;;;;;;;0.30;0.30;;;;;;;;;;5020195;28;20137;-86
2024/01/02 11:25:04;;;;;;;0.57;0.57;;;;;;;;;;5020329;28;20045;-86
2024/01/02 11:27:33;;;;;;;0.50;0.40;;;;;;;;;;5020744;28;20088;-86
2024/01/02 11:30:04;;;;;;;0.32;0.32;;;;;;;;;;5019887;28;20057;-85
2024/01/02 11:32:40;;;;;;;0.30;0.30;;;;;;;;;;5019468;28;20050;-85
2024/01/02 11:35:09;;;;;;;0.30;0.30;;;;;;;;;;5022304;28;20462;-85
2024/01/02 11:37:38;;;;;;;0.43;0.43;;;;;;;;;;5016969;28;20054;-86
2024/01/02 11:40:17;;;;;;;0.32;0.32;;;;;;;;;;5016429;28;20227;-87
2024/01/02 11:42:51;;;;;;;0.40;0.40;;;;;;;;;;5017867;28;20081;-85
2024/01/02 11:45:20;;;;;;;0.40;0.40;;;;;;;;;;5019234;28;20445;-85
2024/01/02 11:47:55;;;;;;;0.50;0.40;;;;;;;;;;5016832;28;20103;-85
2024/01/02 11:50:25;;;;;;;0.40;0.40;;;;;;;;;;5016058;28;20045;-84
2024/01/02 11:52:56;;;;;;;0.40;0.40;;;;;;;;;;5020410;28;20052;-85
2024/01/02 11:55:31;;;;;;;0.30;0.30;;;;;;;;;;5018356;28;20045;-84
2024/01/02 11:58:02;;;;;;;0.40;0.40;;;;;;;;;;5015549;28;20042;-84
2024/01/02 12:00:39;;;;;;;0.50;0.50;;;;;;;;;;5015587;28;20057;-84
2024/01/02 12:03:11;;;;;;;0.32;0.32;;;;;;;;;;5021605;28;20049;-84
2024/01/02 12:05:49;;;;;;;0.30;0.30;;;;;;;;;;5018504;28;20049;-84
2024/01/02 12:08:21;;;;;;;0.40;0.40;;;;;;;;;;5017266;28;20050;-85
2024/01/02 12:10:51;;;;;;;0.40;0.40;;;;;;;;;;5015342;28;20497;-85
2024/01/02 12:13:28;;;;;;;0.63;0.50;;;;;;;;;;5016524;28;20458;-85
2024/01/02 12:15:57;;;;;;;0.40;0.40;;;;;;;;;;5020020;28;20175;-84
2024/01/02 12:18:30;;;;;;;0.40;0.40;;;;;;;;;;5019195;28;20057;-85
2024/01/02 12:21:01;;;;;;;0.32;0.32;;;;;;;;;;5017206;28;20058;-84
2024/01/02 12:23:31;;;;;;;0.40;0.40;;;;;;;;;;5021668;28;20136;-85
2024/01/02 12:26:03;;;;;;;0.30;0.30;;;;;;;;;;5021417;28;20104;-84
2024/01/02 12:28:33;;;;;;;2.53;0.45;;;;;;;;;;5018898;28;20053;-85
2024/01/02 12:31:06;;;;;;;0.40;0.40;;;;;;;;;;5016349;28;20532;-85
2024/01/02 12:33:37;;;;;;;1.20;0.30;;;;;;;;;;5018342;28;20491;-85
2024/01/02 12:36:08;;;;;;;0.32;0.32;;;;;;;;;;5021189;28;20060;-85
2024/01/02 12:38:45;;;;;;;0.32;0.32;;;;;;;;;;5020389;28;20572;-85
2024/01/02 12:41:18;;;;;;;0.43;0.30;;;;;;;;;;5021689;28;20080;-85
2024/01/02 12:43:51;;;;;;;0.30;0.30;;;;;;;;;;5019558;28;20128;-85
2024/01/02 12:46:26;;;;;;;0.40;0.40;;;;;;;;;;5019461;28;20606;-84
2024/01/02 12:48:59;;;;;;;0.43;0.43;;;;;;;;;;5021658;28;20054;-84
2024/01/02 12:51:31;;;;;;;0.40;0.40;;;;;;;;;;5018991;28;20045;-85
2024/01/02 12:54:02;;;;;;;0.40;0.40;;;;;;;;;;5019302;28;20469;-85
2024/01/02 12:56:33;;;;;;;0.40;0.40;;;;;;;;;;5024156;28;20042;-85
2024/01/02 12:59:05;;;;;;;0.43;0.30;;;;;;;;;;5021786;28;20046;-85
2024/01/02 13:01:34;;;;;;;0.30;0.30;;;;;;;;;;5019726;28;20057;-85
2024/01/02 13:04:03;;;;;;;0.40;0.40;;;;;;;;;;5024189;28;20513;-85
2024/01/02 13:06:31;;;;;;;0.47;0.30;;;;;;;;;;5022147;28;20069;-85
2024/01/02 13:09:00;;;;;;;0.30;0.30;;;;;;;;;;5021188;28;20058;-85
2024/01/02 13:11:29;;;;;;;0.30;0.30;;;;;;;;;;5020870;28;20486;-85
2024/01/02 13:13:59;;;;;;;0.30;0.30;;;;;;;;;;5018228;28;20046;-84
2024/01/02 13:16:27;;;;;;;0.40;0.40;;;;;;;;;;5022188;28;20076;-85
2024/01/02 13:18:56;;;;;;;0.40;0.40;;;;;;;;;;5020507;28;20053;-85
2024/01/02 13:21:25;;;;;;;0.30;0.30;;;;;;;;;;5018776;28;20041;-85
2024/01/02 13:23:56;;;;;;;0.30;0.30;;;;;;;;;;5021045;28;20108;-85
2024/01/02 13:26:25;;;;;;;0.40;0.40;;;;;;;;;;5017155;28;20046;-85
2024/01/02 13:28:55;;;;;;;0.40;0.40;;;;;;;;;;5021551;28;20492;-85
2024/01/02 13:31:33;;;;;;;0.90;0.40;;;;;;;;;;5022827;28;20107;-85
2024/01/02 13:34:02;;;;;;;0.30;0.30;;;;;;;;;;5017899;28;20104;-85
2024/01/02 13:36:31;;;;;;;0.30;0.30;;;;;;;;;;5020458;28;20069;-85
2024/01/02 13:39:00;;;;;;;0.30;0.30;;;;;;;;;;5018421;28;20046;-85
2024/01/02 13:41:28;;;;;;;0.30;0.30;;;;;;;;;;5020228;28;20052;-85
2024/01/02 13:44:08;;;;;;;0.30;0.30;;;;;;;;;;5021770;28;20064;-85
2024/01/02 13:46:40;;;;;;;0.40;0.40;;;;;;;;;;5020012;28;20042;-85
2024/01/02 13:49:08;;;;;;;0.40;0.40;;;;;;;;;;5021668;28;20081;-85
2024/01/02 13:51:37;;;;;;;0.30;0.30;;;;;;;;;;5023677;28;20050;-85
2024/01/02 13:54:07;;;;;;;0.50;0.47;;;;;;;;;;5017903;28;20065;-85
2024/01/02 13:56:36;;;;;;;0.52;0.40;;;;;;;;;;5018894;28;20132;-85
2024/01/02 13:59:05;;;;;;;0.40;0.40;;;;;;;;;;5021652;28;20053;-85
2024/01/02 14:01:35;;;;;;;1.40;0.38;;;;;;;;;;5019664;28;20049;-85
2024/01/02 14:04:06;;;;;;;0.38;0.38;;;;;;;;;;5018643;28;20054;-84
2024/01/02 14:06:37;;;;;;;1.50;0.43;;;;;;;;;;5019373;28;20494;-84
2024/01/02 14:09:15;;;;;;;0.32;0.32;;;;;;;;;;5020692;28;20061;-85
2024/01/02 14:11:53;;;;;;;0.40;0.40;;;;;;;;;;5018829;28;20175;-85
2024/01/02 14:14:26;;;;;;;0.47;0.40;;;;;;;;;;5019399;28;20054;-85
2024/01/02 14:17:12;;;;;;;0.40;0.40;;;;;;;;;;5022288;28;20050;-85
2024/01/02 14:19:44;;;;;;;0.47;0.40;;;;;;;;;;5022736;28;20042;-84
2024/01/02 14:22:18;;;;;;;0.30;0.30;;;;;;;;;;5019985;28;20049;-85
2024/01/02 14:24:51;;;;;;;0.30;0.30;;;;;;;;;;5022939;28;20080;-85
2024/01/02 14:27:22;;;;;;;0.40;0.40;;;;;;;;;;5017620;28;20056;-85
2024/01/02 14:29:58;;;;;;;0.32;0.32;;;;;;;;;;5023126;28;20661;-85
2024/01/02 14:32:38;;;;;;;0.40;0.40;;;;;;;;;;5019245;28;20091;-85
2024/01/02 14:35:10;;;;;;;0.30;0.30;;;;;;;;;;5016160;28;20049;-85
2024/01/02 14:37:41;;;;;;;0.35;0.35;;;;;;;;;;5023031;28;20048;-85
2024/01/02 14:40:12;;;;;;;0.40;0.40;;;;;;;;;;5016366;28;20081;-85
2024/01/02 14:42:59;;;;;;;0.40;0.40;;;;;;;;;;5020126;28;20451;-84
2024/01/02 14:45:32;;;;;;;0.40;0.40;;;;;;;;;;5021825;28;20054;-85
2024/01/02 14:48:11;;;;;;;0.65;0.50;;;;;;;;;;5023160;28;20044;-85
2024/01/02 14:50:45;;;;;;;0.35;0.35;;;;;;;;;;5016482;28;20049;-85
2024/01/02 14:53:31;;;;;;;0.30;0.30;;;;;;;;;;5022743;28;20092;-85
2024/01/02 14:56:12;;;;;;;0.40;0.40;;;;;;;;;;5014783;28;20058;-85
2024/01/02 14:58:55;;;;;;;0.40;0.40;;;;;;;;;;5020437;28;20049;-85
2024/01/02 15:01:28;;;;;;;0.57;0.40;;;;;;;;;;5016959;28;20100;-84